createdAt,value
2018-08-13T00:02:13.641Z,13.50
2018-08-13T00:04:42.136Z,13.50
2018-08-13T00:07:10.669Z,13.50
2018-08-13T00:09:42.765Z,13.50
2018-08-13T00:12:12.951Z,13.40
2018-08-13T00:14:41.526Z,13.40
2018-08-13T00:17:10.021Z,13.50
2018-08-13T00:19:38.573Z,13.40
2018-08-13T00:22:07.137Z,13.40
2018-08-13T00:24:35.677Z,13.40
2018-08-13T00:27:04.269Z,13.40
2018-08-13T00:29:32.740Z,13.40
2018-08-13T00:32:01.230Z,13.40
2018-08-13T00:34:29.741Z,13.40
2018-08-13T00:36:58.216Z,13.40
2018-08-13T00:39:26.825Z,13.40
2018-08-13T00:41:55.385Z,13.40
2018-08-13T00:44:23.893Z,13.40
2018-08-13T00:46:52.445Z,13.40
2018-08-13T00:49:20.941Z,13.40
2018-08-13T00:51:49.425Z,13.40
2018-08-13T00:54:17.914Z,13.40
2018-08-13T00:56:46.469Z,13.40
2018-08-13T00:59:15.102Z,13.30
2018-08-13T01:01:43.619Z,13.30
2018-08-13T01:04:12.201Z,13.30
2018-08-13T01:06:40.687Z,13.20
2018-08-13T01:09:10.141Z,13.20
2018-08-13T01:11:38.720Z,13.20
2018-08-13T01:14:07.521Z,13.20
2018-08-13T01:16:36.017Z,13.20
2018-08-13T01:19:04.766Z,13.20
2018-08-13T01:21:33.273Z,13.20
2018-08-13T01:24:01.826Z,13.20
2018-08-13T01:26:30.408Z,13.10
2018-08-13T01:28:58.881Z,13.20
2018-08-13T01:31:27.401Z,13.20
2018-08-13T01:33:55.965Z,13.20
2018-08-13T01:36:24.461Z,13.20
2018-08-13T01:38:52.909Z,13.20
2018-08-13T01:41:21.455Z,13.20
2018-08-13T01:43:49.968Z,13.20
2018-08-13T01:46:18.477Z,13.20
2018-08-13T01:48:47.017Z,13.20
2018-08-13T01:51:15.526Z,13.20
2018-08-13T01:53:44.058Z,13.20
2018-08-13T01:56:12.656Z,13.20
2018-08-13T01:58:41.170Z,13.20
2018-08-13T02:01:09.758Z,13.20
2018-08-13T02:03:38.381Z,13.20
2018-08-13T02:06:06.868Z,13.20
2018-08-13T02:08:35.354Z,13.20
2018-08-13T02:11:04.177Z,13.20
2018-08-13T02:13:32.681Z,13.20
2018-08-13T02:16:01.133Z,13.30
2018-08-13T02:18:29.733Z,13.30
2018-08-13T02:20:58.245Z,13.30
2018-08-13T02:23:26.793Z,13.30
2018-08-13T02:25:55.417Z,13.40
2018-08-13T02:28:23.981Z,13.40
2018-08-13T02:30:52.501Z,13.40
2018-08-13T02:33:21.083Z,13.40
2018-08-13T02:35:49.559Z,13.40
2018-08-13T02:38:18.082Z,13.40
2018-08-13T02:40:46.674Z,13.40
2018-08-13T02:43:15.221Z,13.40
2018-08-13T02:45:43.698Z,13.40
2018-08-13T02:48:12.305Z,13.50
2018-08-13T02:50:40.841Z,13.50
2018-08-13T02:53:09.310Z,13.60
2018-08-13T02:55:37.845Z,13.60
2018-08-13T02:58:06.464Z,13.60
2018-08-13T03:00:34.961Z,13.60
2018-08-13T03:03:03.529Z,13.70
2018-08-13T03:05:32.009Z,13.70
2018-08-13T03:08:00.537Z,13.70
2018-08-13T03:10:29.069Z,13.70
2018-08-13T03:12:57.606Z,13.70
2018-08-13T03:15:26.065Z,13.80
2018-08-13T03:17:54.586Z,13.80
2018-08-13T03:20:23.053Z,13.80
2018-08-13T03:22:51.518Z,13.90
2018-08-13T03:25:20.001Z,13.90
2018-08-13T03:27:48.541Z,13.90
2018-08-13T03:30:17.170Z,14.00
2018-08-13T03:32:45.695Z,14.00
2018-08-13T03:35:14.217Z,14.00
2018-08-13T03:37:42.720Z,14.10
2018-08-13T03:40:13.018Z,14.10
2018-08-13T03:42:41.717Z,14.10
2018-08-13T03:45:11.882Z,14.10
2018-08-13T03:47:40.528Z,14.20
2018-08-13T03:50:10.458Z,14.20
2018-08-13T03:52:39.033Z,14.20
2018-08-13T03:55:08.802Z,14.20
2018-08-13T03:57:37.305Z,14.20
2018-08-13T04:00:09.837Z,14.20
2018-08-13T04:02:38.396Z,14.20
2018-08-13T04:05:08.239Z,14.20
2018-08-13T04:07:37.488Z,14.30
2018-08-13T04:10:08.153Z,14.30
2018-08-13T04:12:37.693Z,14.30
2018-08-13T04:15:07.234Z,14.40
2018-08-13T04:17:35.741Z,14.40
2018-08-13T04:20:06.049Z,14.50
2018-08-13T04:22:34.549Z,14.50
2018-08-13T04:25:03.609Z,14.60
2018-08-13T04:27:32.093Z,14.60
2018-08-13T04:30:00.667Z,14.70
2018-08-13T04:32:29.141Z,14.80
2018-08-13T04:34:57.617Z,14.80
2018-08-13T04:37:26.104Z,14.80
2018-08-13T04:39:54.589Z,14.80
2018-08-13T04:42:23.084Z,14.90
2018-08-13T04:44:51.641Z,14.90
2018-08-13T04:47:20.122Z,15.00
2018-08-13T04:49:48.561Z,15.00
2018-08-13T04:52:17.245Z,15.00
2018-08-13T04:54:45.681Z,15.10
2018-08-13T04:57:14.389Z,15.10
2018-08-13T04:59:42.889Z,15.20
2018-08-13T05:02:11.353Z,15.20
2018-08-13T05:04:39.855Z,15.30
2018-08-13T05:07:08.339Z,15.30
2018-08-13T05:09:36.814Z,15.40
2018-08-13T05:12:05.297Z,15.40
2018-08-13T05:14:33.773Z,15.50
2018-08-13T05:17:02.257Z,15.50
2018-08-13T05:19:30.725Z,15.60
2018-08-13T05:21:59.309Z,15.70
2018-08-13T05:24:27.801Z,15.70
2018-08-13T05:26:56.284Z,15.80
2018-08-13T05:29:24.849Z,15.80
2018-08-13T05:31:53.337Z,15.90
2018-08-13T05:34:21.797Z,16.00
2018-08-13T05:36:50.354Z,16.00
2018-08-13T05:39:18.837Z,16.00
2018-08-13T05:41:47.328Z,16.10
2018-08-13T05:44:15.881Z,16.10
2018-08-13T05:46:44.369Z,16.10
2018-08-13T05:49:12.882Z,16.20
2018-08-13T05:51:41.379Z,16.20
2018-08-13T05:54:09.916Z,16.30
2018-08-13T05:56:38.395Z,16.40
2018-08-13T05:59:06.937Z,16.40
2018-08-13T06:01:35.401Z,16.50
2018-08-13T06:04:03.917Z,16.50
2018-08-13T06:06:32.422Z,16.60
2018-08-13T06:09:00.917Z,16.70
2018-08-13T06:11:29.469Z,16.80
2018-08-13T06:13:58.053Z,16.90
2018-08-13T06:16:26.586Z,17.00
2018-08-13T06:18:55.053Z,17.00
2018-08-13T06:21:23.616Z,17.10
2018-08-13T06:23:52.128Z,17.20
2018-08-13T06:26:20.632Z,17.20
2018-08-13T06:28:49.137Z,17.30
2018-08-13T06:31:17.622Z,17.30
2018-08-13T06:33:46.101Z,17.30
2018-08-13T06:36:14.602Z,17.40
2018-08-13T06:38:43.076Z,17.40
2018-08-13T06:41:11.573Z,17.50
2018-08-13T06:43:40.094Z,17.60
2018-08-13T06:46:08.581Z,17.60
2018-08-13T06:48:37.080Z,17.70
2018-08-13T06:51:05.693Z,17.70
2018-08-13T06:53:35.322Z,17.70
2018-08-13T06:56:03.838Z,17.70
2018-08-13T06:58:32.365Z,17.80
2018-08-13T07:01:00.910Z,17.80
2018-08-13T07:03:29.370Z,17.90
2018-08-13T07:05:57.932Z,17.90
2018-08-13T07:08:26.517Z,17.90
2018-08-13T07:10:54.997Z,18.00
2018-08-13T07:13:23.569Z,18.00
2018-08-13T07:15:52.115Z,18.10
2018-08-13T07:18:20.594Z,18.20
2018-08-13T07:20:49.184Z,18.20
2018-08-13T07:23:17.676Z,18.30
2018-08-13T07:25:46.162Z,18.40
2018-08-13T07:28:14.697Z,18.40
2018-08-13T07:30:43.205Z,18.50
2018-08-13T07:33:11.671Z,18.60
2018-08-13T07:35:40.189Z,18.70
2018-08-13T07:38:08.674Z,18.70
2018-08-13T07:40:37.197Z,18.80
2018-08-13T07:43:05.805Z,18.80
2018-08-13T07:45:34.409Z,18.90
2018-08-13T07:48:02.928Z,18.90
2018-08-13T07:50:31.458Z,18.90
2018-08-13T07:52:59.943Z,19.00
2018-08-13T07:55:28.640Z,19.00
2018-08-13T07:57:57.182Z,19.00
2018-08-13T08:00:25.675Z,19.00
2018-08-13T08:02:54.217Z,19.00
2018-08-13T08:05:22.797Z,19.10
2018-08-13T08:07:51.377Z,19.10
2018-08-13T08:10:19.999Z,19.00
2018-08-13T08:12:48.528Z,19.00
2018-08-13T08:15:18.609Z,19.10
2018-08-13T08:17:47.125Z,19.10
2018-08-13T08:20:15.717Z,19.20
2018-08-13T08:22:44.248Z,19.20
2018-08-13T08:25:18.081Z,19.30
2018-08-13T08:27:46.609Z,19.30
2018-08-13T08:30:15.309Z,19.40
2018-08-13T08:32:43.857Z,19.40
2018-08-13T08:35:14.541Z,19.40
2018-08-13T08:37:43.125Z,19.40
2018-08-13T08:40:13.504Z,19.40
2018-08-13T08:42:42.066Z,19.40
2018-08-13T08:45:17.237Z,19.50
2018-08-13T08:47:45.901Z,19.50
2018-08-13T08:50:15.144Z,19.50
2018-08-13T08:52:44.354Z,19.50
2018-08-13T08:55:12.893Z,19.50
2018-08-13T08:57:41.493Z,19.60
2018-08-13T09:00:15.429Z,19.70
2018-08-13T09:02:43.981Z,19.70
2018-08-13T09:05:12.506Z,19.80
2018-08-13T09:07:41.753Z,19.80
2018-08-13T09:10:10.281Z,19.90
2018-08-13T09:12:39.081Z,20.00
2018-08-13T09:15:08.917Z,20.10
2018-08-13T09:17:48.601Z,20.20
2018-08-13T09:20:28.097Z,20.30
2018-08-13T09:23:07.699Z,20.30
2018-08-13T09:25:47.279Z,20.40
2018-08-13T09:28:26.847Z,20.40
2018-08-13T09:31:06.435Z,20.50
2018-08-13T09:33:45.989Z,20.50
2018-08-13T09:36:14.561Z,20.60
2018-08-13T09:38:43.041Z,20.60
2018-08-13T09:41:11.541Z,20.70
2018-08-13T09:43:40.092Z,20.70
2018-08-13T09:46:08.573Z,20.70
2018-08-13T09:48:37.033Z,20.70
2018-08-13T09:51:05.601Z,20.80
2018-08-13T09:53:34.141Z,20.80
2018-08-13T09:56:02.630Z,20.70
2018-08-13T09:58:31.192Z,20.70
2018-08-13T10:01:05.037Z,20.70
2018-08-13T10:03:33.565Z,20.70
2018-08-13T10:06:02.061Z,20.70
2018-08-13T10:08:30.542Z,20.70
2018-08-13T10:10:59.195Z,20.70
2018-08-13T10:13:27.680Z,20.70
2018-08-13T10:15:56.191Z,20.70
2018-08-13T10:18:24.718Z,20.70
2018-08-13T10:20:53.303Z,20.80
2018-08-13T10:23:21.792Z,20.80
2018-08-13T10:25:50.309Z,20.80
2018-08-13T10:28:18.791Z,20.80
2018-08-13T10:30:47.281Z,20.80
2018-08-13T10:33:15.822Z,20.80
2018-08-13T10:35:44.308Z,20.90
2018-08-13T10:38:12.776Z,20.90
2018-08-13T10:40:41.317Z,20.90
2018-08-13T10:43:09.820Z,20.90
2018-08-13T10:45:38.341Z,21.00
2018-08-13T10:48:06.888Z,21.00
2018-08-13T10:50:35.371Z,21.10
2018-08-13T10:53:03.897Z,21.10
2018-08-13T10:55:32.481Z,21.20
2018-08-13T10:58:00.981Z,21.30
2018-08-13T11:00:29.579Z,21.30
2018-08-13T11:02:58.138Z,21.30
2018-08-13T11:05:26.568Z,21.40
2018-08-13T11:07:55.051Z,21.50
2018-08-13T11:10:23.706Z,21.50
2018-08-13T11:12:52.183Z,21.60
2018-08-13T11:15:20.789Z,21.60
2018-08-13T11:17:49.398Z,21.60
2018-08-13T11:20:17.997Z,21.60
2018-08-13T11:22:46.694Z,21.60
2018-08-13T11:25:16.044Z,21.60
2018-08-13T11:27:44.669Z,21.60
2018-08-13T11:30:15.386Z,21.60
2018-08-13T11:32:44.061Z,21.60
2018-08-13T11:35:13.118Z,21.70
2018-08-13T11:37:41.614Z,21.70
2018-08-13T11:40:13.680Z,21.80
2018-08-13T11:42:42.241Z,21.90
2018-08-13T11:45:10.902Z,22.00
2018-08-13T11:47:40.089Z,22.10
2018-08-13T11:50:11.811Z,22.20
2018-08-13T11:52:40.308Z,22.30
2018-08-13T11:55:08.915Z,22.40
2018-08-13T11:57:37.423Z,22.50
2018-08-13T12:00:08.090Z,22.60
2018-08-13T12:02:37.082Z,22.80
2018-08-13T12:05:07.013Z,22.90
2018-08-13T12:07:35.536Z,23.10
2018-08-13T12:10:05.108Z,23.30
2018-08-13T12:12:33.669Z,23.40
2018-08-13T12:15:02.597Z,23.40
2018-08-13T12:17:31.480Z,23.50
2018-08-13T12:20:00.067Z,23.50
2018-08-13T12:22:28.641Z,23.60
2018-08-13T12:24:57.184Z,23.60
2018-08-13T12:27:25.654Z,23.60
2018-08-13T12:29:54.099Z,23.70
2018-08-13T12:32:22.667Z,23.80
2018-08-13T12:34:51.241Z,23.80
2018-08-13T12:37:19.729Z,23.80
2018-08-13T12:39:48.266Z,23.80
2018-08-13T12:42:16.804Z,23.90
2018-08-13T12:44:45.257Z,24.00
2018-08-13T12:47:13.784Z,24.00
2018-08-13T12:49:42.286Z,23.90
2018-08-13T12:52:10.788Z,23.90
2018-08-13T12:54:39.268Z,23.90
2018-08-13T12:57:07.905Z,23.80
2018-08-13T12:59:36.383Z,23.70
2018-08-13T13:02:05.061Z,23.60
2018-08-13T13:04:33.522Z,23.50
2018-08-13T13:07:02.031Z,23.40
2018-08-13T13:09:30.559Z,23.30
2018-08-13T13:11:59.053Z,23.20
2018-08-13T13:14:27.649Z,23.00
2018-08-13T13:16:56.150Z,22.90
2018-08-13T13:19:24.605Z,22.80
2018-08-13T13:21:53.128Z,22.70
2018-08-13T13:24:21.687Z,22.60
2018-08-13T13:26:50.197Z,22.50
2018-08-13T13:29:18.661Z,22.50
2018-08-13T13:31:47.170Z,22.50
2018-08-13T13:34:15.613Z,22.40
2018-08-13T13:36:44.288Z,22.30
2018-08-13T13:39:12.836Z,22.30
2018-08-13T13:41:41.370Z,22.30
2018-08-13T13:44:09.853Z,22.20
2018-08-13T13:46:38.353Z,22.30
2018-08-13T13:49:06.842Z,22.20
2018-08-13T13:51:35.316Z,22.20
2018-08-13T13:54:03.914Z,22.20
2018-08-13T13:56:32.430Z,22.30
2018-08-13T13:59:00.914Z,22.30
2018-08-13T14:01:29.458Z,22.30
2018-08-13T14:03:57.938Z,22.30
2018-08-13T14:06:26.537Z,22.20
2018-08-13T14:08:55.245Z,22.20
2018-08-13T14:11:23.753Z,22.10
2018-08-13T14:13:52.253Z,22.00
2018-08-13T14:16:20.833Z,21.90
2018-08-13T14:18:49.351Z,21.90
2018-08-13T14:21:17.901Z,21.90
2018-08-13T14:23:46.443Z,21.80
2018-08-13T14:26:14.970Z,21.80
2018-08-13T14:28:43.473Z,21.70
2018-08-13T14:31:12.106Z,21.70
2018-08-13T14:33:40.615Z,21.60
2018-08-13T14:36:09.137Z,21.60
2018-08-13T14:38:37.761Z,21.50
2018-08-13T14:41:06.497Z,21.40
2018-08-13T14:43:35.105Z,21.30
2018-08-13T14:46:03.653Z,21.30
2018-08-13T14:48:32.234Z,21.30
2018-08-13T14:51:00.769Z,21.20
2018-08-13T14:53:29.264Z,21.20
2018-08-13T14:55:57.729Z,21.10
2018-08-13T14:58:26.250Z,21.10
2018-08-13T15:00:54.853Z,21.10
2018-08-13T15:03:23.321Z,21.10
2018-08-13T15:05:51.802Z,21.10
2018-08-13T15:08:20.309Z,21.00
2018-08-13T15:10:48.791Z,21.00
2018-08-13T15:13:17.335Z,21.00
2018-08-13T15:15:45.893Z,21.00
2018-08-13T15:18:15.073Z,20.90
2018-08-13T15:20:43.569Z,20.90
2018-08-13T15:23:12.074Z,20.90
2018-08-13T15:25:40.574Z,20.90
2018-08-13T15:28:09.165Z,20.90
2018-08-13T15:30:37.637Z,20.90
2018-08-13T15:33:06.245Z,21.00
2018-08-13T15:35:34.688Z,21.00
2018-08-13T15:38:03.229Z,21.00
2018-08-13T15:40:31.764Z,21.00
2018-08-13T15:43:00.241Z,20.90
2018-08-13T15:45:28.769Z,20.90
2018-08-13T15:47:57.290Z,20.90
2018-08-13T15:50:25.793Z,20.90
2018-08-13T15:52:54.467Z,20.80
2018-08-13T15:55:22.987Z,20.70
2018-08-13T15:57:51.518Z,20.70
2018-08-13T16:00:22.658Z,20.60
2018-08-13T16:02:51.374Z,20.70
2018-08-13T16:05:20.089Z,20.70
2018-08-13T16:07:49.124Z,20.70
2018-08-13T16:10:18.292Z,20.70
2018-08-13T16:12:47.023Z,20.80
2018-08-13T16:15:15.702Z,20.80
2018-08-13T16:17:44.237Z,20.70
2018-08-13T16:20:16.861Z,20.80
2018-08-13T16:22:45.916Z,20.80
2018-08-13T16:25:14.801Z,20.80
2018-08-13T16:27:43.777Z,20.70
2018-08-13T16:30:24.453Z,20.70
2018-08-13T16:32:53.137Z,20.70
2018-08-13T16:35:22.461Z,20.70
2018-08-13T16:37:50.984Z,20.60
2018-08-13T16:40:20.013Z,20.60
2018-08-13T16:42:49.249Z,20.50
2018-08-13T16:45:18.655Z,20.50
2018-08-13T16:47:47.293Z,20.50
2018-08-13T16:50:32.812Z,20.30
2018-08-13T16:53:01.659Z,20.30
2018-08-13T16:55:31.401Z,20.20
2018-08-13T16:58:00.863Z,20.10
2018-08-13T17:00:30.673Z,20.00
2018-08-13T17:02:59.645Z,19.90
2018-08-13T17:05:28.937Z,19.80
2018-08-13T17:07:57.497Z,19.70
2018-08-13T17:10:27.358Z,19.70
2018-08-13T17:12:56.757Z,19.50
2018-08-13T17:15:26.353Z,19.40
2018-08-13T17:17:56.353Z,19.40
2018-08-13T17:20:27.752Z,19.30
2018-08-13T17:22:56.281Z,19.20
2018-08-13T17:25:24.845Z,19.10
2018-08-13T17:27:53.445Z,19.00
2018-08-13T17:30:23.449Z,19.00
2018-08-13T17:32:53.093Z,18.90
2018-08-13T17:35:23.809Z,18.80
2018-08-13T17:37:52.347Z,18.80
2018-08-13T17:40:21.983Z,18.70
2018-08-13T17:42:51.116Z,18.60
2018-08-13T17:45:19.577Z,18.50
2018-08-13T17:47:48.118Z,18.50
2018-08-13T17:50:18.269Z,18.40
2018-08-13T17:52:46.881Z,18.40
2018-08-13T17:55:16.021Z,18.30
2018-08-13T17:57:45.165Z,18.30
2018-08-13T18:00:28.426Z,18.30
2018-08-13T18:02:57.013Z,18.20
2018-08-13T18:05:26.849Z,18.20
2018-08-13T18:07:55.969Z,18.10
2018-08-13T18:10:27.103Z,18.10
2018-08-13T18:12:56.189Z,18.10
2018-08-13T18:15:24.746Z,18.00
2018-08-13T18:17:53.338Z,18.00
2018-08-13T18:20:21.925Z,18.00
2018-08-13T18:22:50.465Z,18.00
2018-08-13T18:25:18.983Z,18.00
2018-08-13T18:27:48.838Z,18.00
2018-08-13T18:30:20.454Z,17.90
2018-08-13T18:32:49.043Z,17.90
2018-08-13T18:35:17.645Z,17.90
2018-08-13T18:37:46.249Z,17.90
2018-08-13T18:40:18.921Z,17.90
2018-08-13T18:42:47.609Z,17.80
2018-08-13T18:45:16.418Z,17.80
2018-08-13T18:47:44.962Z,17.90
2018-08-13T18:50:16.378Z,17.80
2018-08-13T18:52:45.238Z,17.80
2018-08-13T18:55:15.017Z,17.80
2018-08-13T18:57:43.618Z,17.80
2018-08-13T19:00:15.150Z,17.80
2018-08-13T19:02:43.713Z,17.80
2018-08-13T19:05:13.537Z,17.80
2018-08-13T19:07:42.481Z,17.80
2018-08-13T19:10:12.842Z,17.80
2018-08-13T19:12:41.590Z,17.80
2018-08-13T19:15:12.101Z,17.80
2018-08-13T19:17:41.014Z,17.80
2018-08-13T19:20:11.409Z,17.80
2018-08-13T19:22:39.957Z,17.80
2018-08-13T19:25:10.934Z,17.80
2018-08-13T19:27:39.604Z,17.80
2018-08-13T19:30:09.254Z,17.80
2018-08-13T19:32:37.741Z,17.80
2018-08-13T19:35:07.381Z,17.80
2018-08-13T19:37:35.906Z,17.80
2018-08-13T19:40:06.546Z,17.80
2018-08-13T19:42:35.077Z,17.80
2018-08-13T19:45:03.941Z,17.80
2018-08-13T19:47:32.450Z,17.80
2018-08-13T19:50:01.008Z,17.80
2018-08-13T19:52:29.509Z,17.80
2018-08-13T19:54:58.830Z,17.80
2018-08-13T19:57:27.766Z,17.80
2018-08-13T19:59:56.293Z,17.80
2018-08-13T20:02:24.837Z,17.80
2018-08-13T20:04:53.639Z,17.80
2018-08-13T20:07:22.106Z,17.70
2018-08-13T20:09:50.602Z,17.70
2018-08-13T20:12:19.201Z,17.70
2018-08-13T20:14:47.715Z,17.70
2018-08-13T20:17:16.231Z,17.70
2018-08-13T20:19:44.781Z,17.60
2018-08-13T20:22:15.608Z,17.60
2018-08-13T20:24:44.521Z,17.60
2018-08-13T20:27:13.089Z,17.50
2018-08-13T20:29:41.682Z,17.50
2018-08-13T20:32:10.907Z,17.50
2018-08-13T20:34:39.473Z,17.50
2018-08-13T20:37:08.045Z,17.40
2018-08-13T20:39:36.494Z,17.40
2018-08-13T20:42:05.077Z,17.40
2018-08-13T20:44:33.597Z,17.40
2018-08-13T20:47:02.075Z,17.40
2018-08-13T20:49:30.558Z,17.40
2018-08-13T20:51:59.073Z,17.30
2018-08-13T20:54:27.514Z,17.40
2018-08-13T20:56:56.049Z,17.30
2018-08-13T20:59:24.577Z,17.30
2018-08-13T21:01:53.037Z,17.30
2018-08-13T21:04:21.540Z,17.30
2018-08-13T21:06:50.022Z,17.30
2018-08-13T21:09:18.513Z,17.30
2018-08-13T21:11:47.046Z,17.30
2018-08-13T21:14:15.529Z,17.30
2018-08-13T21:16:44.051Z,17.30
2018-08-13T21:19:12.561Z,17.30
2018-08-13T21:21:41.076Z,17.30
2018-08-13T21:24:09.570Z,17.30
2018-08-13T21:26:38.167Z,17.30
2018-08-13T21:29:06.701Z,17.30
2018-08-13T21:31:35.289Z,17.30
2018-08-13T21:34:03.794Z,17.30
2018-08-13T21:36:32.317Z,17.30
2018-08-13T21:39:02.861Z,17.30
2018-08-13T21:41:31.477Z,17.30
2018-08-13T21:43:59.968Z,17.30
2018-08-13T21:46:28.445Z,17.30
2018-08-13T21:48:56.949Z,17.20
2018-08-13T21:51:25.455Z,17.20
2018-08-13T21:53:53.965Z,17.20
2018-08-13T21:56:22.490Z,17.20
2018-08-13T21:58:50.965Z,17.20
2018-08-13T22:01:24.822Z,17.10
2018-08-13T22:03:53.353Z,17.20
2018-08-13T22:06:21.865Z,17.20
2018-08-13T22:08:50.489Z,17.10
2018-08-13T22:11:19.026Z,17.10
2018-08-13T22:13:47.554Z,17.10
2018-08-13T22:16:16.046Z,17.10
2018-08-13T22:18:44.599Z,17.10
2018-08-13T22:21:13.125Z,17.10
2018-08-13T22:23:52.874Z,17.10
2018-08-13T22:26:21.360Z,17.10
2018-08-13T22:28:49.853Z,17.10
2018-08-13T22:31:18.410Z,17.10
2018-08-13T22:33:46.901Z,17.10
2018-08-13T22:36:15.416Z,17.10
2018-08-13T22:38:43.935Z,17.10
2018-08-13T22:41:12.397Z,17.10
2018-08-13T22:43:40.861Z,17.10
2018-08-13T22:46:09.425Z,17.10
2018-08-13T22:48:37.949Z,17.10
2018-08-13T22:51:06.669Z,17.10
2018-08-13T22:53:35.196Z,17.10
2018-08-13T22:56:03.739Z,17.10
2018-08-13T22:58:32.237Z,17.00
2018-08-13T23:01:00.773Z,17.00
2018-08-13T23:03:29.265Z,17.00
2018-08-13T23:05:57.774Z,17.00
2018-08-13T23:08:26.308Z,17.00
2018-08-13T23:10:54.853Z,17.00
2018-08-13T23:13:23.406Z,17.00
2018-08-13T23:15:52.010Z,17.00
2018-08-13T23:18:20.523Z,17.00
2018-08-13T23:20:49.061Z,17.00
2018-08-13T23:23:17.541Z,17.00
2018-08-13T23:25:46.046Z,17.00
2018-08-13T23:28:14.533Z,17.00
2018-08-13T23:30:43.069Z,17.00
2018-08-13T23:33:11.590Z,17.00
2018-08-13T23:35:40.169Z,17.00
2018-08-13T23:38:08.645Z,17.00
2018-08-13T23:40:37.111Z,17.00
2018-08-13T23:43:05.641Z,17.00
2018-08-13T23:45:34.161Z,17.00
2018-08-13T23:48:02.698Z,17.00
2018-08-13T23:50:31.168Z,17.00
2018-08-13T23:53:00.833Z,17.10
2018-08-13T23:55:32.745Z,17.10
2018-08-13T23:58:01.529Z,17.10
